Time;durP1;ratioP1;P1;durP2;ratioP2;P2;SDS_P1;SDS_P2;PMS_P1;PMS_P2;Temp;Humidity;BMP_temperature;BMP_pressure;BME280_temperature;BME280_humidity;BME280_pressure;Samples;Min_cycle;Max_cycle;Signal;HPM_P1;HPM_P2
2024/03/12 00:00:23;;;;;;;0.50;0.50;;;;;;;6.39;84.03;96397.97;29394;217;64009;-54
2024/03/12 00:00:56;;;;;;;0.60;0.60;;;;;;;6.38;84.30;96396.37;29395;214;63005;-53
2024/03/12 00:01:27;;;;;;;0.50;0.50;;;;;;;6.40;84.54;96394.19;29395;206;63020;-54
2024/03/12 00:02:00;;;;;;;0.60;0.60;;;;;;;6.40;84.35;96396.91;29394;199;64009;-54
2024/03/12 00:02:34;;;;;;;0.50;0.50;;;;;;;6.40;84.33;96396.91;29395;222;63009;-54
2024/03/12 00:03:09;;;;;;;0.60;0.60;;;;;;;6.41;84.37;96393.13;29395;299;63004;-54
2024/03/12 00:03:43;;;;;;;0.60;0.60;;;;;;;6.43;84.25;96396.34;29395;350;63009;-54
2024/03/12 00:04:16;;;;;;;0.55;0.55;;;;;;;6.43;84.20;96404.44;29395;197;63004;-54
2024/03/12 00:04:47;;;;;;;0.60;0.60;;;;;;;6.43;84.20;96395.53;29395;232;63020;-54
2024/03/12 00:05:19;;;;;;;0.50;0.50;;;;;;;6.41;84.71;96397.69;29395;236;63004;-54
2024/03/12 00:05:52;;;;;;;0.60;0.60;;;;;;;6.36;84.75;96402.03;29395;197;63009;-53
2024/03/12 00:06:23;;;;;;;0.50;0.50;;;;;;;6.35;85.15;96402.31;29395;207;63005;-54
2024/03/12 00:06:55;;;;;;;0.60;0.60;;;;;;;6.32;85.18;96394.78;29395;230;63009;-55
2024/03/12 00:07:30;;;;;;;0.50;0.50;;;;;;;6.30;84.92;96402.34;29394;202;64009;-54
2024/03/12 00:08:02;;;;;;;0.60;0.60;;;;;;;6.29;85.02;96395.34;29395;200;63020;-54
2024/03/12 00:08:33;;;;;;;0.50;0.50;;;;;;;6.29;85.12;96400.72;29395;249;63005;-67
2024/03/12 00:09:09;;;;;;;0.50;0.50;;;;;;;6.27;85.05;96401.00;29395;211;63009;-54
2024/03/12 00:09:40;;;;;;;0.50;0.50;;;;;;;6.27;85.14;96392.09;29395;211;63013;-54
2024/03/12 00:10:17;;;;;;;0.60;0.60;;;;;;;6.27;85.07;96402.87;29395;269;63009;-53
2024/03/12 00:10:48;;;;;;;0.60;0.60;;;;;;;6.28;85.45;96397.22;29395;202;63004;-54
2024/03/12 00:11:20;;;;;;;0.60;0.60;;;;;;;6.27;85.46;96397.50;29395;255;63009;-67
2024/03/12 00:11:52;;;;;;;0.50;0.50;;;;;;;6.25;85.63;96397.78;29395;197;63004;-54
2024/03/12 00:12:23;;;;;;;0.60;0.60;;;;;;;6.25;85.43;96395.06;29395;281;63018;-54
2024/03/12 00:12:56;;;;;;;0.50;0.50;;;;;;;6.26;85.28;96401.28;29394;271;64008;-55
2024/03/12 00:13:27;;;;;;;0.60;0.60;;;;;;;6.28;85.51;96402.59;29395;314;63009;-54
2024/03/12 00:15:06;;;;;;;0.60;0.60;;;;;;;6.27;85.39;96398.31;88178;215;64004;-54
2024/03/12 00:15:40;;;;;;;0.60;0.60;;;;;;;6.26;85.72;96401.28;29394;254;64009;-53
2024/03/12 00:16:12;;;;;;;0.60;0.60;;;;;;;6.25;85.67;96405.03;29395;220;63016;-53
2024/03/12 00:16:44;;;;;;;0.60;0.60;;;;;;;6.24;85.43;96404.25;29395;213;63009;-54
2024/03/12 00:17:17;;;;;;;0.60;0.60;;;;;;;6.24;85.53;96403.44;29395;202;63009;-53
2024/03/12 00:17:50;;;;;;;0.60;0.60;;;;;;;6.24;85.74;96398.03;29395;278;63009;-53
2024/03/12 00:18:25;;;;;;;0.50;0.50;;;;;;;6.24;85.63;96395.34;29394;202;64009;-53
2024/03/12 00:18:56;;;;;;;0.50;0.50;;;;;;;6.23;86.11;96407.25;29395;243;63009;-53
2024/03/12 00:19:27;;;;;;;0.60;0.60;;;;;;;6.26;85.77;96398.56;29395;204;63004;-53
2024/03/12 00:20:05;;;;;;;0.60;0.60;;;;;;;6.27;85.83;96400.19;29395;206;63009;-53
2024/03/12 00:20:39;;;;;;;0.50;0.50;;;;;;;6.25;85.90;96399.66;29395;216;63010;-54
2024/03/12 00:21:11;;;;;;;0.50;0.50;;;;;;;6.23;86.15;96401.84;29395;198;63009;-55
2024/03/12 00:21:43;;;;;;;0.60;0.60;;;;;;;6.21;85.98;96398.63;29395;262;63005;-55
2024/03/12 00:22:16;;;;;;;0.60;0.60;;;;;;;6.19;86.41;96400.78;29395;256;63021;-67
2024/03/12 00:22:49;;;;;;;0.60;0.60;;;;;;;6.17;85.98;96405.66;29395;198;63005;-55
2024/03/12 00:23:22;;;;;;;0.60;0.60;;;;;;;6.17;86.24;96402.94;29395;301;63009;-55
2024/03/12 00:23:53;;;;;;;0.60;0.60;;;;;;;6.16;86.28;96401.34;29394;232;64009;-54
2024/03/12 00:24:24;;;;;;;0.60;0.60;;;;;;;6.14;86.83;96395.41;29395;199;63009;-55
2024/03/12 00:24:56;;;;;;;0.50;0.50;;;;;;;6.13;86.54;96405.38;29395;283;63005;-55
2024/03/12 00:25:28;;;;;;;0.50;0.50;;;;;;;6.13;86.62;96404.59;29395;204;63009;-55
2024/03/12 00:26:00;;;;;;;0.60;0.60;;;;;;;6.12;86.41;96405.66;29395;227;63008;-55
2024/03/12 00:26:32;;;;;;;0.60;0.60;;;;;;;6.10;86.42;96399.75;29395;222;63009;-55
2024/03/12 00:27:05;;;;;;;0.60;0.60;;;;;;;6.08;86.85;96399.22;29395;227;63004;-56
2024/03/12 00:27:40;;;;;;;0.60;0.60;;;;;;;6.03;87.60;96403.53;29395;197;63009;-55
2024/03/12 00:28:11;;;;;;;0.60;0.60;;;;;;;5.99;87.88;96402.47;29395;246;63004;-55
2024/03/12 00:28:47;;;;;;;0.60;0.60;;;;;;;5.97;87.64;96401.13;29395;309;63026;-55
2024/03/12 00:29:19;;;;;;;0.60;0.60;;;;;;;5.93;88.21;96398.19;29394;298;64009;-55
2024/03/12 00:29:50;;;;;;;0.60;0.60;;;;;;;5.93;88.58;96397.38;29395;211;63020;-55
2024/03/12 00:30:30;;;;;;;0.60;0.60;;;;;;;5.93;88.37;96408.94;29395;209;63004;-56
2024/03/12 00:31:05;;;;;;;0.57;0.57;;;;;;;5.91;89.13;96405.72;29395;249;63009;-55
2024/03/12 00:31:38;;;;;;;0.60;0.60;;;;;;;5.88;88.99;96400.88;29395;218;63005;-55
2024/03/12 00:32:09;;;;;;;0.57;0.57;;;;;;;5.86;89.11;96411.13;29395;268;63009;-55
2024/03/12 00:32:43;;;;;;;0.60;0.60;;;;;;;5.89;88.76;96402.50;29395;259;63011;-55
2024/03/12 00:33:14;;;;;;;0.60;0.60;;;;;;;5.88;89.40;96398.19;29395;214;63009;-56
2024/03/12 00:33:46;;;;;;;0.60;0.60;;;;;;;5.87;89.33;96403.84;29395;226;63004;-55
2024/03/12 00:34:20;;;;;;;0.60;0.60;;;;;;;5.85;89.33;96406.81;29394;267;64013;-53
2024/03/12 00:34:51;;;;;;;0.50;0.50;;;;;;;5.85;88.77;96396.06;29395;230;63004;-54
2024/03/12 00:35:24;;;;;;;0.60;0.60;;;;;;;5.84;89.07;96405.22;29395;236;63008;-55
2024/03/12 00:35:57;;;;;;;0.60;0.60;;;;;;;5.83;89.02;96403.59;29395;225;63005;-55
2024/03/12 00:36:29;;;;;;;0.60;0.60;;;;;;;5.82;89.25;96407.38;29395;297;63009;-55
2024/03/12 00:37:01;;;;;;;0.60;0.60;;;;;;;5.81;89.50;96403.06;29395;252;63005;-55
2024/03/12 00:37:33;;;;;;;0.50;0.50;;;;;;;5.80;89.34;96404.13;29395;198;63009;-55
2024/03/12 00:38:05;;;;;;;0.60;0.60;;;;;;;5.80;88.88;96404.13;29395;200;63005;-55
2024/03/12 00:38:37;;;;;;;0.50;0.50;;;;;;;5.81;89.07;96400.38;29395;236;63009;-55
2024/03/12 00:39:10;;;;;;;0.52;0.52;;;;;;;5.80;89.53;96404.13;29395;212;63005;-55
2024/03/12 00:39:41;;;;;;;0.60;0.60;;;;;;;5.79;89.61;96407.91;29394;214;64013;-55
2024/03/12 00:40:16;;;;;;;0.50;0.50;;;;;;;5.78;89.38;96406.28;29395;222;63014;-55
2024/03/12 00:40:50;;;;;;;0.60;0.60;;;;;;;5.79;89.11;96402.53;29395;286;63009;-55
2024/03/12 00:41:22;;;;;;;0.50;0.50;;;;;;;5.80;89.18;96406.84;29395;259;63004;-55
2024/03/12 00:41:54;;;;;;;0.60;0.60;;;;;;;5.79;89.59;96407.91;29395;210;63009;-54
2024/03/12 00:42:26;;;;;;;0.52;0.52;;;;;;;5.78;89.49;96405.50;29395;242;63004;-55
2024/03/12 00:42:59;;;;;;;0.60;0.60;;;;;;;5.78;88.97;96411.69;29395;217;63009;-55
2024/03/12 00:43:32;;;;;;;0.55;0.55;;;;;;;5.77;89.49;96404.69;29395;227;63005;-55
2024/03/12 00:44:05;;;;;;;0.60;0.60;;;;;;;5.77;89.14;96409.25;29395;215;63009;-55
2024/03/12 00:45:44;;;;;;;0.66;0.66;;;;;;;5.77;89.13;96411.94;88178;204;64004;-54
2024/03/12 00:46:16;;;;;;;0.60;0.60;;;;;;;5.76;88.91;96403.06;29394;224;64009;-56
2024/03/12 00:46:47;;;;;;;0.60;0.60;;;;;;;5.76;89.23;96404.97;29395;290;63004;-54
2024/03/12 00:47:21;;;;;;;0.50;0.50;;;;;;;5.76;89.55;96408.47;29395;197;63023;-55
2024/03/12 00:47:53;;;;;;;0.60;0.60;;;;;;;5.74;89.98;96416.00;29395;202;63011;-55
2024/03/12 00:48:25;;;;;;;0.60;0.60;;;;;;;5.71;89.80;96411.97;29395;264;63009;-54
2024/03/12 00:48:57;;;;;;;0.60;0.60;;;;;;;5.70;89.58;96409.53;29395;223;63004;-55
2024/03/12 00:49:30;;;;;;;0.65;0.65;;;;;;;5.69;89.58;96413.31;29395;205;63009;-54
2024/03/12 00:50:02;;;;;;;0.60;0.60;;;;;;;5.71;89.55;96417.34;29395;255;63005;-54
2024/03/12 00:50:34;;;;;;;0.60;0.60;;;;;;;5.71;89.62;96406.59;29395;278;63009;-55
2024/03/12 00:51:06;;;;;;;0.60;0.60;;;;;;;5.74;89.77;96410.63;29395;204;63005;-55
2024/03/12 00:51:38;;;;;;;0.60;0.60;;;;;;;5.73;89.54;96404.41;29394;213;64013;-55
2024/03/12 00:52:09;;;;;;;0.60;0.60;;;;;;;5.72;89.62;96412.78;29395;255;63015;-54
2024/03/12 00:52:44;;;;;;;0.60;0.60;;;;;;;5.73;89.60;96414.38;29395;196;63009;-54
2024/03/12 00:53:15;;;;;;;0.60;0.60;;;;;;;5.72;89.30;96413.56;29394;232;64005;-54
2024/03/12 00:53:46;;;;;;;0.60;0.60;;;;;;;5.73;89.54;96409.00;29395;220;63009;-55
2024/03/12 00:54:18;;;;;;;0.60;0.60;;;;;;;5.73;89.47;96409.81;29395;198;63004;-54
2024/03/12 00:54:50;;;;;;;0.50;0.50;;;;;;;5.73;89.57;96409.81;29395;264;63004;-55
2024/03/12 00:55:24;;;;;;;0.60;0.60;;;;;;;5.71;90.14;96406.59;29395;299;63004;-54
2024/03/12 00:55:58;;;;;;;0.60;0.60;;;;;;;5.71;90.17;96411.16;29395;229;63009;-55
2024/03/12 00:56:29;;;;;;;0.50;0.50;;;;;;;5.69;89.98;96413.31;29395;213;63004;-54
2024/03/12 00:57:05;;;;;;;0.60;0.60;;;;;;;5.67;90.37;96410.91;29394;261;64014;-55
2024/03/12 00:57:40;;;;;;;0.60;0.60;;;;;;;5.66;90.63;96403.91;29395;197;63005;-55
2024/03/12 00:58:12;;;;;;;0.60;0.60;;;;;;;5.66;90.58;96409.28;29395;274;63017;-55
2024/03/12 00:58:43;;;;;;;0.50;0.50;;;;;;;5.65;90.44;96421.13;29395;241;63005;-55
2024/03/12 00:59:15;;;;;;;0.60;0.60;;;;;;;5.65;90.67;96417.63;29395;216;63009;-54
2024/03/12 01:11:22;;;;;;;0.67;0.67;;;;;;;5.48;92.08;96422.53;88122;204;64005;-55
2024/03/12 01:11:55;;;;;;;0.60;0.60;;;;;;;5.47;92.38;96420.91;29394;211;64008;-55
2024/03/12 01:12:28;;;;;;;0.50;0.50;;;;;;;5.44;92.46;96416.88;29395;222;63005;-55
2024/03/12 01:13:01;;;;;;;0.60;0.60;;;;;;;5.43;92.26;96420.63;29395;236;63009;-55
2024/03/12 01:13:33;;;;;;;0.60;0.60;;;;;;;5.41;92.46;96420.09;29395;200;63020;-54
2024/03/12 01:14:05;;;;;;;0.60;0.60;;;;;;;5.41;92.04;96430.06;29395;260;63009;-54
2024/03/12 01:14:37;;;;;;;0.60;0.60;;;;;;;5.41;92.05;96421.97;29395;225;63005;-55
2024/03/12 01:15:09;;;;;;;0.60;0.60;;;;;;;5.39;92.23;96414.19;29395;262;63009;-68
2024/03/12 01:15:40;;;;;;;0.60;0.60;;;;;;;5.38;92.67;96421.44;29395;289;63005;-55
2024/03/12 01:16:12;;;;;;;0.70;0.70;;;;;;;5.37;92.65;96424.41;29395;279;63009;-55
2024/03/12 01:16:44;;;;;;;0.65;0.65;;;;;;;5.39;92.05;96420.38;29395;270;63004;-55
2024/03/12 01:17:17;;;;;;;0.55;0.55;;;;;;;5.39;92.13;96420.38;29394;223;64013;-56
2024/03/12 01:17:48;;;;;;;0.50;0.50;;;;;;;5.42;91.72;96423.59;29395;252;63004;-55
2024/03/12 01:18:20;;;;;;;0.60;0.60;;;;;;;5.42;91.79;96432.47;29395;209;63009;-54
2024/03/12 01:18:51;;;;;;;0.60;0.60;;;;;;;5.46;91.79;96413.91;29395;244;63004;-55
2024/03/12 01:19:23;;;;;;;0.60;0.60;;;;;;;5.49;91.44;96424.13;29395;202;63008;-54
2024/03/12 01:19:54;;;;;;;0.60;0.60;;;;;;;5.48;91.02;96423.31;29395;202;63010;-54
2024/03/12 01:20:26;;;;;;;0.50;0.50;;;;;;;5.48;90.93;96425.22;29395;202;63016;-54
2024/03/12 01:20:58;;;;;;;0.60;0.60;;;;;;;5.48;90.96;96420.63;29395;212;63016;-54
2024/03/12 01:21:32;;;;;;;0.52;0.52;;;;;;;5.47;91.07;96420.91;29395;253;63009;-55
2024/03/12 01:22:04;;;;;;;0.60;0.60;;;;;;;5.47;91.01;96432.47;29395;295;63005;-55
2024/03/12 01:22:37;;;;;;;0.60;0.60;;;;;;;5.46;91.66;96424.69;29394;211;64013;-54
2024/03/12 01:23:09;;;;;;;0.60;0.60;;;;;;;5.45;91.31;96423.06;29395;266;63004;-55
2024/03/12 01:23:40;;;;;;;0.60;0.60;;;;;;;5.43;91.79;96422.53;29395;200;63004;-54
2024/03/12 01:24:12;;;;;;;0.60;0.60;;;;;;;5.41;92.41;96412.03;29395;203;63004;-54
2024/03/12 01:24:45;;;;;;;0.60;0.60;;;;;;;5.41;91.65;96425.47;29395;244;63009;-54
2024/03/12 01:25:17;;;;;;;0.50;0.50;;;;;;;5.41;91.79;96421.97;29395;236;63018;-55
2024/03/12 01:25:48;;;;;;;0.60;0.60;;;;;;;5.42;91.71;96423.59;29395;199;63008;-55
2024/03/12 01:26:25;;;;;;;0.60;0.60;;;;;;;5.42;91.75;96423.59;29395;206;63004;-68
2024/03/12 01:26:56;;;;;;;0.60;0.60;;;;;;;5.42;91.58;96423.59;29395;206;63008;-54
2024/03/12 01:27:28;;;;;;;0.60;0.60;;;;;;;5.43;91.16;96425.22;29395;270;63005;-55
2024/03/12 01:28:00;;;;;;;0.60;0.60;;;;;;;5.41;91.12;96428.19;29394;205;64013;-54
2024/03/12 01:28:34;;;;;;;0.60;0.60;;;;;;;5.43;91.19;96419.84;29395;292;63005;-55
2024/03/12 01:29:07;;;;;;;0.60;0.60;;;;;;;5.46;91.41;96424.69;29395;200;63009;-55
2024/03/12 01:29:39;;;;;;;0.60;0.60;;;;;;;5.47;91.28;96427.09;29395;240;63005;-55
2024/03/12 01:30:16;;;;;;;0.60;0.60;;;;;;;5.49;91.03;96424.13;29395;273;63028;-55
2024/03/12 01:31:56;;;;;;;0.59;0.59;;;;;;;5.47;91.60;96437.06;88174;211;64021;-55
2024/03/12 01:32:27;;;;;;;0.60;0.60;;;;;;;5.44;91.74;96429.50;29394;223;64009;-55
2024/03/12 01:32:58;;;;;;;0.60;0.60;;;;;;;5.45;91.50;96437.31;29395;218;63004;-55
2024/03/12 01:33:30;;;;;;;0.60;0.60;;;;;;;5.45;91.46;96428.44;29394;241;64013;-55
2024/03/12 01:34:05;;;;;;;0.60;0.60;;;;;;;5.47;91.17;96434.34;29394;197;64009;-55
2024/03/12 01:34:38;;;;;;;0.60;0.60;;;;;;;5.48;90.97;96439.47;29395;273;63008;-55
2024/03/12 01:35:09;;;;;;;0.60;0.60;;;;;;;5.50;90.85;96431.12;29395;216;63007;-55
2024/03/12 01:35:40;;;;;;;0.50;0.50;;;;;;;5.54;90.77;96440.28;29395;219;63009;-55
2024/03/12 01:36:20;;;;;;;0.50;0.50;;;;;;;5.56;90.65;96430.00;29395;262;63005;-54
2024/03/12 01:36:53;;;;;;;0.60;0.60;;;;;;;5.54;90.56;96432.19;29395;214;63009;-55
2024/03/12 01:37:24;;;;;;;0.60;0.60;;;;;;;5.49;90.69;96433.00;29395;224;63005;-54
2024/03/12 01:37:59;;;;;;;0.50;0.50;;;;;;;5.46;90.91;96430.06;29395;224;63009;-55
2024/03/12 01:38:33;;;;;;;0.60;0.60;;;;;;;5.42;91.33;96429.78;29395;274;63005;-54
2024/03/12 01:39:08;;;;;;;0.60;0.60;;;;;;;5.39;91.44;96425.75;29394;267;64013;-55
2024/03/12 01:39:39;;;;;;;0.60;0.60;;;;;;;5.35;91.34;96430.06;29395;235;63004;-67
2024/03/12 01:40:21;;;;;;;0.50;0.50;;;;;;;5.38;91.19;96434.91;29395;234;63009;-57
2024/03/12 01:40:53;;;;;;;0.60;0.60;;;;;;;5.39;91.24;96431.12;29395;260;63004;-54
2024/03/12 01:41:26;;;;;;;0.57;0.57;;;;;;;5.38;90.96;96429.53;29395;254;63009;-54
2024/03/12 01:41:57;;;;;;;0.50;0.50;;;;;;;5.38;90.98;96429.53;29395;238;63004;-55
2024/03/12 01:42:30;;;;;;;0.60;0.60;;;;;;;5.35;91.54;96435.44;29395;214;63008;-55
2024/03/12 01:43:03;;;;;;;0.60;0.60;;;;;;;5.32;91.76;96435.97;29395;259;63018;-55
2024/03/12 01:43:35;;;;;;;0.60;0.60;;;;;;;5.30;91.83;96427.37;29395;256;63021;-55
2024/03/12 01:44:08;;;;;;;0.60;0.60;;;;;;;5.29;91.85;96430.31;29394;254;64009;-54
2024/03/12 01:44:39;;;;;;;0.50;0.50;;;;;;;5.27;91.75;96435.16;29395;210;63009;-55
2024/03/12 01:45:10;;;;;;;0.60;0.60;;;;;;;5.26;91.56;96431.66;29395;226;63005;-54
2024/03/12 01:45:42;;;;;;;0.50;0.50;;;;;;;5.26;91.72;96430.88;29395;214;63009;-55
2024/03/12 01:58:27;;;;;;;1.05;1.04;;;;;;;5.14;94.27;96439.22;88122;203;64005;-89
2024/03/12 01:59:01;;;;;;;0.60;0.60;;;;;;;5.13;93.94;96442.19;29394;240;64009;-89
2024/03/12 01:59:40;;;;;;;0.60;0.60;;;;;;;5.13;94.07;96434.91;29395;208;63005;-90
2024/03/12 02:00:24;;;;;;;13.77;13.25;;;;;;;5.12;93.76;96443.25;29385;226;65009;-91
2024/03/12 02:01:24;;;;;;;0.60;0.60;;;;;;;5.09;93.85;96447.28;29395;251;63005;-88
2024/03/12 02:02:21;;;;;;;0.55;0.55;;;;;;;5.08;93.73;96445.66;29395;208;63009;-89
2024/03/12 02:03:06;;;;;;;0.60;0.60;;;;;;;5.07;94.03;96452.13;29395;234;63004;-89
2024/03/12 02:03:42;;;;;;;0.60;0.60;;;;;;;5.07;93.86;96436.00;29395;202;63009;-90
2024/03/12 02:04:39;;;;;;;0.60;0.60;;;;;;;5.07;93.80;96449.44;29394;255;64009;-89
2024/03/12 02:05:36;;;;;;;0.60;0.60;;;;;;;5.08;93.49;96450.25;29395;311;63009;-90
2024/03/12 02:06:14;;;;;;;0.60;0.60;;;;;;;5.10;93.71;96448.91;29395;205;63005;-90
2024/03/12 02:06:48;;;;;;;0.60;0.60;;;;;;;5.04;93.44;96434.66;29395;255;63009;-89
2024/03/12 02:07:21;;;;;;;0.60;0.60;;;;;;;5.10;93.19;96446.22;29395;197;63005;-90
2024/03/12 02:07:53;;;;;;;0.60;0.60;;;;;;;5.10;93.39;96451.59;29395;240;63009;-90
2024/03/12 02:08:46;;;;;;;0.70;0.70;;;;;;;5.09;93.48;96447.28;29395;243;63005;-89
2024/03/12 02:09:21;;;;;;;;;;;;;;;5.09;93.56;96451.84;29996;987;6009;-89
2024/03/12 02:10:13;;;;;;;0.50;0.50;;;;;;;5.05;93.85;96446.22;29400;242;63004;-90
2024/03/12 02:11:11;;;;;;;0.62;0.62;;;;;;;5.03;93.87;96445.66;29395;204;63000;-89
2024/03/12 02:12:15;;;;;;;0.60;0.60;;;;;;;4.96;94.43;96454.00;29395;295;63004;-88
2024/03/12 02:13:32;;;;;;;0.60;0.60;;;;;;;5.02;93.90;96454.81;29395;197;63001;-89
2024/03/12 02:14:12;;;;;;;0.60;0.60;;;;;;;5.05;93.24;96456.97;29395;221;63005;-89
2024/03/12 02:14:56;;;;;;;0.60;0.60;;;;;;;5.07;93.38;96446.75;29394;197;64009;-89
2024/03/12 02:15:48;;;;;;;0.60;0.60;;;;;;;5.04;92.96;96455.34;29417;211;63009;-89
2024/03/12 02:16:30;;;;;;;0.60;0.60;;;;;;;5.01;93.18;96455.88;29395;213;63005;-91
2024/03/12 02:17:44;;;;;;;;;;;;;;;;;;;;;
2024/03/12 02:19:07;;;;;;;0.60;0.60;;;;;;;4.91;94.36;96455.88;29395;225;63004;-89
2024/03/12 02:20:12;;;;;;;0.60;0.60;;;;;;;4.90;94.23;96448.87;29394;220;64013;-89
2024/03/12 02:21:46;;;;;;;0.60;0.60;;;;;;;4.87;94.52;96449.41;29395;215;63005;-90
2024/03/12 02:22:43;;;;;;;0.60;0.60;;;;;;;4.83;94.80;96451.84;29395;249;63009;-91
2024/03/12 02:23:39;;;;;;;0.60;0.60;;;;;;;4.83;94.87;96445.66;29395;238;63005;-90
2024/03/12 02:24:55;;;;;;;0.60;0.60;;;;;;;4.80;95.20;96451.56;29395;232;63009;-89
2024/03/12 02:25:49;;;;;;;0.60;0.60;;;;;;;4.78;95.43;96453.72;29394;230;64009;-93
2024/03/12 02:26:53;;;;;;;0.60;0.60;;;;;;;4.79;95.28;96456.13;29395;226;63009;-92
2024/03/12 02:28:00;;;;;;;0.60;0.60;;;;;;;4.79;95.22;96452.62;29395;225;63004;-91
2024/03/12 02:28:55;;;;;;;0.60;0.60;;;;;;;4.79;95.25;96452.62;29395;198;63009;-90
2024/03/12 02:29:54;;;;;;;0.60;0.60;;;;;;;4.79;95.18;96458.00;29395;227;63005;-90
2024/03/12 02:31:14;;;;;;;0.60;0.60;;;;;;;4.79;95.78;96452.62;29395;223;63009;-89
2024/03/12 02:32:13;;;;;;;0.70;0.70;;;;;;;4.79;95.69;96466.88;29438;212;64009;-90
2024/03/12 03:54:19;;;;;;;0.55;0.55;;;;;;;4.80;95.76;96499.94;29373;226;63009;-55
2024/03/12 03:55:59;;;;;;;0.60;0.60;;;;;;;4.83;95.81;96512.88;88174;202;64004;-56
2024/03/12 03:56:31;;;;;;;0.60;0.60;;;;;;;4.88;95.25;96505.59;29394;203;64009;-55
2024/03/12 03:57:03;;;;;;;0.60;0.60;;;;;;;4.92;94.71;96505.88;29395;204;63005;-56
2024/03/12 03:57:35;;;;;;;0.60;0.60;;;;;;;4.92;94.85;96511.25;29395;216;63009;-69
2024/03/12 03:58:06;;;;;;;0.60;0.60;;;;;;;4.90;95.14;96508.81;29395;239;63005;-55
2024/03/12 03:58:37;;;;;;;0.60;0.60;;;;;;;4.90;94.63;96502.63;29394;197;64013;-55
2024/03/12 03:59:13;;;;;;;0.60;0.60;;;;;;;4.91;94.45;96509.63;29395;232;63005;-56
2024/03/12 03:59:45;;;;;;;0.60;0.60;;;;;;;4.91;94.43;96509.63;29395;328;63009;-56
2024/03/12 04:00:22;;;;;;;0.60;0.60;;;;;;;4.92;94.59;96512.06;29395;251;63004;-56
2024/03/12 04:00:54;;;;;;;0.60;0.60;;;;;;;4.92;94.29;96508.56;29395;196;63013;-55
2024/03/12 04:01:28;;;;;;;0.60;0.60;;;;;;;4.92;93.88;96511.25;29395;213;63004;-56
2024/03/12 04:01:59;;;;;;;0.50;0.50;;;;;;;4.92;94.04;96505.88;29395;256;63009;-56
2024/03/12 04:02:30;;;;;;;0.60;0.60;;;;;;;4.93;93.72;96512.88;29395;249;63008;-56
2024/03/12 04:03:06;;;;;;;0.60;0.60;;;;;;;4.93;93.99;96512.88;29395;229;63009;-55
2024/03/12 04:03:38;;;;;;;0.60;0.60;;;;;;;4.94;93.47;96509.09;29394;227;64001;-55
2024/03/12 04:04:19;;;;;;;0.60;0.60;;;;;;;4.95;93.37;96508.03;29395;226;63009;-56
2024/03/12 04:04:55;;;;;;;0.55;0.55;;;;;;;5.01;93.25;96509.66;29416;202;64009;-56
2024/03/12 04:05:27;;;;;;;0.60;0.60;;;;;;;5.13;92.34;96507.53;29395;212;63025;-56
2024/03/12 04:05:58;;;;;;;0.60;0.60;;;;;;;5.14;91.99;96501.09;29395;236;63010;-55
2024/03/12 04:06:29;;;;;;;0.60;0.60;;;;;;;5.16;91.95;96511.56;29395;238;63009;-56
2024/03/12 04:07:00;;;;;;;0.50;0.50;;;;;;;5.19;91.62;96503.78;29395;218;63000;-56
2024/03/12 04:07:32;;;;;;;0.60;0.60;;;;;;;5.26;91.25;96507.00;29394;199;64013;-56
2024/03/12 04:08:06;;;;;;;0.60;0.60;;;;;;;5.24;91.43;96509.13;29395;221;63004;-55
2024/03/12 04:08:37;;;;;;;0.60;0.60;;;;;;;5.20;91.70;96508.06;29395;246;63009;-56
2024/03/12 04:09:08;;;;;;;0.60;0.60;;;;;;;5.16;91.81;96517.75;29395;245;63004;-55
2024/03/12 04:09:40;;;;;;;0.90;0.90;;;;;;;5.11;91.95;96515.06;29395;230;63008;-57
2024/03/12 04:11:21;;;;;;;0.60;0.60;;;;;;;5.11;91.50;96509.69;88178;208;64004;-55
2024/03/12 04:11:53;;;;;;;0.60;0.60;;;;;;;5.09;91.75;96511.81;29394;221;64009;-56
2024/03/12 04:12:26;;;;;;;0.60;0.60;;;;;;;5.09;91.99;96511.81;29395;253;63005;-66
2024/03/12 04:12:57;;;;;;;0.60;0.60;;;;;;;5.07;91.96;96518.53;29395;206;63009;-55
2024/03/12 04:13:28;;;;;;;0.60;0.60;;;;;;;5.07;92.24;96513.97;29395;282;63005;-67
2024/03/12 04:14:02;;;;;;;0.50;0.50;;;;;;;5.06;91.99;96520.44;29395;197;63009;-55
2024/03/12 04:14:34;;;;;;;0.60;0.60;;;;;;;5.04;92.17;96514.50;29395;212;63004;-54
2024/03/12 04:15:06;;;;;;;0.60;0.60;;;;;;;5.04;92.52;96515.31;29394;263;64013;-55
2024/03/12 04:15:38;;;;;;;0.60;0.60;;;;;;;5.05;92.79;96518.81;29395;292;63004;-54
2024/03/12 04:16:10;;;;;;;0.60;0.60;;;;;;;5.05;92.85;96510.75;29395;278;63009;-55
2024/03/12 04:16:42;;;;;;;0.60;0.60;;;;;;;4.95;93.39;96505.34;29395;246;63004;-55
2024/03/12 04:17:19;;;;;;;0.60;0.60;;;;;;;5.01;93.33;96512.34;29395;259;63008;-56
2024/03/12 04:17:51;;;;;;;0.60;0.60;;;;;;;5.01;92.97;96520.41;29395;212;63005;-55
2024/03/12 04:18:22;;;;;;;0.60;0.60;;;;;;;5.02;93.24;96512.09;29395;210;63009;-55
2024/03/12 04:18:54;;;;;;;0.60;0.60;;;;;;;5.05;93.04;96516.94;29394;235;64009;-55
2024/03/12 04:19:25;;;;;;;0.60;0.60;;;;;;;5.05;92.91;96521.50;29394;233;64009;-55
2024/03/12 04:19:57;;;;;;;0.60;0.60;;;;;;;5.04;92.90;96514.50;29395;203;63005;-55
2024/03/12 04:20:30;;;;;;;0.50;0.50;;;;;;;5.03;92.66;96519.06;29395;335;63009;-55
2024/03/12 04:21:02;;;;;;;0.60;0.60;;;;;;;5.02;93.09;96517.47;29396;210;63005;-55
2024/03/12 04:21:36;;;;;;;0.60;0.60;;;;;;;5.00;93.54;96524.97;29395;290;63009;-55
2024/03/12 04:22:09;;;;;;;0.60;0.60;;;;;;;5.03;93.19;96523.66;29395;202;63004;-57
2024/03/12 04:22:45;;;;;;;0.60;0.60;;;;;;;5.04;93.11;96522.56;29394;202;64013;-55
2024/03/12 04:23:16;;;;;;;0.60;0.60;;;;;;;5.05;92.60;96524.19;29395;213;63004;-55
2024/03/12 04:23:48;;;;;;;0.50;0.50;;;;;;;5.05;92.61;96518.81;29395;198;63009;-72
2024/03/12 04:24:19;;;;;;;0.50;0.50;;;;;;;5.07;92.58;96530.09;29395;221;63004;-54
2024/03/12 04:24:50;;;;;;;0.60;0.60;;;;;;;5.07;92.87;96524.72;29395;236;63008;-55
2024/03/12 04:25:22;;;;;;;0.60;0.60;;;;;;;5.05;92.72;96526.88;29395;197;63005;-55
2024/03/12 04:25:54;;;;;;;0.50;0.50;;;;;;;5.04;92.91;96530.63;29395;248;63005;-68
2024/03/12 04:26:31;;;;;;;0.60;0.60;;;;;;;5.03;93.06;96534.41;29395;249;63005;-54
2024/03/12 04:27:07;;;;;;;0.60;0.60;;;;;;;5.03;92.78;96523.66;29395;198;63009;-56
2024/03/12 04:27:39;;;;;;;0.60;0.60;;;;;;;5.06;92.73;96528.50;29395;296;63005;-55
2024/03/12 04:28:15;;;;;;;0.60;0.60;;;;;;;5.08;92.88;96530.91;29394;203;64013;-54
2024/03/12 04:28:47;;;;;;;0.60;0.60;;;;;;;5.08;92.74;96528.22;29395;235;63017;-55
2024/03/12 04:29:19;;;;;;;0.60;0.60;;;;;;;5.08;92.80;96530.91;29395;214;63009;-55
2024/03/12 04:29:50;;;;;;;0.60;0.60;;;;;;;5.09;92.60;96538.72;29395;275;63004;-56
2024/03/12 04:30:22;;;;;;;0.60;0.60;;;;;;;5.10;92.47;96534.97;29395;213;63009;-55
2024/03/12 04:30:54;;;;;;;0.50;0.50;;;;;;;5.09;92.56;96535.22;29395;224;63014;-55
2024/03/12 04:31:26;;;;;;;0.50;0.50;;;;;;;5.08;92.48;96530.91;29395;219;63009;-55
2024/03/12 04:31:58;;;;;;;0.60;0.60;;;;;;;5.07;92.57;96540.87;29395;237;63004;-70
2024/03/12 04:32:30;;;;;;;0.60;0.60;;;;;;;5.10;92.44;96531.47;29395;251;63009;-55
2024/03/12 04:33:04;;;;;;;0.60;0.60;;;;;;;5.14;92.34;96536.03;29395;200;63015;-55
2024/03/12 04:33:36;;;;;;;0.60;0.60;;;;;;;5.14;92.62;96535.22;29394;244;64014;-55
2024/03/12 04:34:08;;;;;;;0.60;0.60;;;;;;;5.12;92.85;96543.56;29395;249;63005;-54
2024/03/12 04:34:39;;;;;;;0.60;0.60;;;;;;;5.12;92.48;96537.38;29395;206;63009;-55
2024/03/12 04:35:12;;;;;;;0.60;0.60;;;;;;;5.10;92.67;96534.97;29395;214;63005;-55
2024/03/12 04:35:50;;;;;;;0.60;0.60;;;;;;;5.12;92.26;96538.19;29395;229;63009;-55
2024/03/12 04:36:22;;;;;;;0.60;0.60;;;;;;;5.11;92.43;96536.56;29395;222;63004;-55
2024/03/12 04:36:54;;;;;;;0.60;0.60;;;;;;;5.07;92.58;96535.50;29395;214;63009;-55
2024/03/12 04:37:26;;;;;;;0.60;0.60;;;;;;;5.06;92.92;96533.87;29394;207;64004;-55
2024/03/12 04:37:59;;;;;;;0.60;0.60;;;;;;;5.06;92.57;96539.25;29395;238;63009;-55
2024/03/12 04:38:35;;;;;;;0.80;0.80;;;;;;;5.07;92.55;96540.87;29395;235;63004;-55
2024/03/12 04:39:30;;;;;;;0.60;0.60;;;;;;;5.10;92.52;96536.84;29394;207;64013;-55
2024/03/12 04:40:11;;;;;;;0.60;0.60;;;;;;;5.14;92.31;96538.72;29395;259;63005;-55
2024/03/12 04:41:48;;;;;;;0.59;0.59;;;;;;;5.19;92.11;96541.44;88178;202;64004;-55
2024/03/12 04:42:24;;;;;;;0.60;0.60;;;;;;;5.20;91.76;96542.25;29394;290;64009;-55
2024/03/12 04:42:55;;;;;;;0.60;0.60;;;;;;;5.20;91.74;96540.34;29395;310;63005;-55
2024/03/12 04:43:26;;;;;;;0.60;0.60;;;;;;;5.23;91.65;96533.63;29395;302;63009;-55
2024/03/12 04:43:57;;;;;;;0.60;0.60;;;;;;;5.23;91.42;96534.41;29395;235;63005;-55